sensor_id;sensor_type;location;lat;lon;timestamp;pressure;altitude;pressure_sealevel;temperature;humidity
50632;BME280;49583;45.590;-122.498;2023-04-10T00:00:41;101559.17;;;12.14;83.65
50632;BME280;49583;45.590;-122.498;2023-04-10T00:03:02;101564.45;;;12.16;83.53
50632;BME280;49583;45.590;-122.498;2023-04-10T00:05:15;101563.98;;;12.16;83.58
50632;BME280;49583;45.590;-122.498;2023-04-10T00:07:29;101561.73;;;12.17;83.81
50632;BME280;49583;45.590;-122.498;2023-04-10T00:09:42;101563.69;;;12.17;83.77
50632;BME280;49583;45.590;-122.498;2023-04-10T00:11:55;101559.85;;;12.17;83.54
50632;BME280;49583;45.590;-122.498;2023-04-10T00:14:09;101561.52;;;12.18;83.76
50632;BME280;49583;45.590;-122.498;2023-04-10T00:16:22;101563.61;;;12.19;83.69
50632;BME280;49583;45.590;-122.498;2023-04-10T00:18:35;101558.98;;;12.19;83.75
50632;BME280;49583;45.590;-122.498;2023-04-10T00:20:50;101563.56;;;12.20;83.73
50632;BME280;49583;45.590;-122.498;2023-04-10T00:23:03;101556.38;;;12.21;83.72
50632;BME280;49583;45.590;-122.498;2023-04-10T00:25:16;101550.77;;;12.22;83.63
50632;BME280;49583;45.590;-122.498;2023-04-10T00:27:30;101548.44;;;12.24;83.75
50632;BME280;49583;45.590;-122.498;2023-04-10T00:29:44;101549.21;;;12.26;83.72
50632;BME280;49583;45.590;-122.498;2023-04-10T00:31:57;101551.20;;;12.26;83.90
50632;BME280;49583;45.590;-122.498;2023-04-10T00:34:12;101551.39;;;12.27;83.79
50632;BME280;49583;45.590;-122.498;2023-04-10T00:36:26;101555.89;;;12.29;83.75
50632;BME280;49583;45.590;-122.498;2023-04-10T00:38:39;101555.80;;;12.28;83.43
50632;BME280;49583;45.590;-122.498;2023-04-10T00:40:52;101550.89;;;12.29;83.55
50632;BME280;49583;45.590;-122.498;2023-04-10T00:43:06;101553.60;;;12.30;83.69
50632;BME280;49583;45.590;-122.498;2023-04-10T00:45:19;101546.45;;;12.31;83.64
50632;BME280;49583;45.590;-122.498;2023-04-10T00:47:32;101549.59;;;12.33;83.65
50632;BME280;49583;45.590;-122.498;2023-04-10T00:49:45;101544.77;;;12.35;83.43
50632;BME280;49583;45.590;-122.498;2023-04-10T00:51:58;101548.90;;;12.37;83.41
50632;BME280;49583;45.590;-122.498;2023-04-10T00:54:12;101546.27;;;12.38;83.29
50632;BME280;49583;45.590;-122.498;2023-04-10T00:56:25;101548.54;;;12.38;83.21
50632;BME280;49583;45.590;-122.498;2023-04-10T00:58:40;101549.66;;;12.39;83.26
50632;BME280;49583;45.590;-122.498;2023-04-10T01:00:53;101545.04;;;12.39;83.22
50632;BME280;49583;45.590;-122.498;2023-04-10T01:03:06;101550.60;;;12.39;83.15
50632;BME280;49583;45.590;-122.498;2023-04-10T01:05:19;101550.95;;;12.41;83.22
50632;BME280;49583;45.590;-122.498;2023-04-10T01:07:41;101546.21;;;12.42;83.17
50632;BME280;49583;45.590;-122.498;2023-04-10T01:10:05;101538.42;;;12.44;83.00
50632;BME280;49583;45.590;-122.498;2023-04-10T01:12:36;101540.13;;;12.45;83.07
50632;BME280;49583;45.590;-122.498;2023-04-10T01:14:57;101541.91;;;12.45;83.04
50632;BME280;49583;45.590;-122.498;2023-04-10T01:17:16;101538.84;;;12.45;82.87
50632;BME280;49583;45.590;-122.498;2023-04-10T01:19:45;101541.10;;;12.44;83.03
50632;BME280;49583;45.590;-122.498;2023-04-10T01:22:05;101541.29;;;12.45;82.98
50632;BME280;49583;45.590;-122.498;2023-04-10T01:24:37;101539.42;;;12.46;82.94
50632;BME280;49583;45.590;-122.498;2023-04-10T01:26:55;101536.76;;;12.47;82.73
50632;BME280;49583;45.590;-122.498;2023-04-10T01:29:16;101536.05;;;12.46;82.80
50632;BME280;49583;45.590;-122.498;2023-04-10T01:31:35;101533.37;;;12.45;82.88
50632;BME280;49583;45.590;-122.498;2023-04-10T01:33:51;101538.65;;;12.47;82.90
50632;BME280;49583;45.590;-122.498;2023-04-10T01:36:08;101535.45;;;12.47;82.61
50632;BME280;49583;45.590;-122.498;2023-04-10T01:38:23;101532.17;;;12.48;82.56
50632;BME280;49583;45.590;-122.498;2023-04-10T01:40:39;101532.90;;;12.49;82.50
50632;BME280;49583;45.590;-122.498;2023-04-10T01:43:08;101537.11;;;12.50;82.31
50632;BME280;49583;45.590;-122.498;2023-04-10T01:45:30;101530.93;;;12.51;82.31
50632;BME280;49583;45.590;-122.498;2023-04-10T01:47:43;101529.77;;;12.52;82.28
50632;BME280;49583;45.590;-122.498;2023-04-10T01:49:57;101527.92;;;12.53;82.17
50632;BME280;49583;45.590;-122.498;2023-04-10T01:52:12;101527.70;;;12.53;82.02
50632;BME280;49583;45.590;-122.498;2023-04-10T01:54:32;101527.45;;;12.53;82.22
50632;BME280;49583;45.590;-122.498;2023-04-10T01:56:45;101521.39;;;12.50;82.14
50632;BME280;49583;45.590;-122.498;2023-04-10T01:58:59;101526.61;;;12.48;82.16
50632;BME280;49583;45.590;-122.498;2023-04-10T02:01:13;101526.52;;;12.45;82.14
50632;BME280;49583;45.590;-122.498;2023-04-10T02:03:38;101525.36;;;12.41;82.13
50632;BME280;49583;45.590;-122.498;2023-04-10T02:05:59;101523.73;;;12.38;82.37
50632;BME280;49583;45.590;-122.498;2023-04-10T02:08:17;101523.73;;;12.37;82.70
50632;BME280;49583;45.590;-122.498;2023-04-10T02:10:34;101525.08;;;12.38;82.64
50632;BME280;49583;45.590;-122.498;2023-04-10T02:12:52;101524.30;;;12.36;82.58
50632;BME280;49583;45.590;-122.498;2023-04-10T02:15:08;101523.77;;;12.33;82.51
50632;BME280;49583;45.590;-122.498;2023-04-10T02:17:27;101526.91;;;12.31;82.63
50632;BME280;49583;45.590;-122.498;2023-04-10T02:19:41;101521.48;;;12.27;82.71
50632;BME280;49583;45.590;-122.498;2023-04-10T02:21:55;101517.92;;;12.23;82.74
50632;BME280;49583;45.590;-122.498;2023-04-10T02:24:08;101528.79;;;12.21;82.88
50632;BME280;49583;45.590;-122.498;2023-04-10T02:26:21;101523.49;;;12.18;83.31
50632;BME280;49583;45.590;-122.498;2023-04-10T02:28:35;101522.73;;;12.13;83.26
50632;BME280;49583;45.590;-122.498;2023-04-10T02:30:49;101526.95;;;12.07;83.40
50632;BME280;49583;45.590;-122.498;2023-04-10T02:33:02;101530.54;;;12.01;83.53
50632;BME280;49583;45.590;-122.498;2023-04-10T02:35:15;101528.36;;;11.96;83.56
50632;BME280;49583;45.590;-122.498;2023-04-10T02:37:28;101527.77;;;11.92;83.69
50632;BME280;49583;45.590;-122.498;2023-04-10T02:39:42;101520.46;;;11.89;83.96
50632;BME280;49583;45.590;-122.498;2023-04-10T02:41:55;101535.42;;;11.88;84.19
50632;BME280;49583;45.590;-122.498;2023-04-10T02:44:09;101540.17;;;11.88;84.44
50632;BME280;49583;45.590;-122.498;2023-04-10T02:46:23;101543.98;;;11.89;84.58
50632;BME280;49583;45.590;-122.498;2023-04-10T02:48:36;101546.82;;;11.89;84.61
50632;BME280;49583;45.590;-122.498;2023-04-10T02:50:54;101546.59;;;11.89;84.70
50632;BME280;49583;45.590;-122.498;2023-04-10T02:53:08;101548.33;;;11.89;84.82
50632;BME280;49583;45.590;-122.498;2023-04-10T02:55:21;101545.52;;;11.90;84.83
50632;BME280;49583;45.590;-122.498;2023-04-10T02:57:34;101543.96;;;11.90;84.69
50632;BME280;49583;45.590;-122.498;2023-04-10T02:59:48;101543.83;;;11.91;84.78
50632;BME280;49583;45.590;-122.498;2023-04-10T03:02:02;101547.77;;;11.93;84.79
50632;BME280;49583;45.590;-122.498;2023-04-10T03:04:17;101553.17;;;11.95;84.82
50632;BME280;49583;45.590;-122.498;2023-04-10T03:06:30;101553.70;;;11.97;84.93
50632;BME280;49583;45.590;-122.498;2023-04-10T03:08:43;101556.92;;;11.99;84.96
50632;BME280;49583;45.590;-122.498;2023-04-10T03:10:56;101556.95;;;12.03;84.95
50632;BME280;49583;45.590;-122.498;2023-04-10T03:13:09;101564.41;;;12.06;84.98
50632;BME280;49583;45.590;-122.498;2023-04-10T03:15:23;101563.93;;;12.09;85.02
50632;BME280;49583;45.590;-122.498;2023-04-10T03:17:36;101564.14;;;12.10;85.08
50632;BME280;49583;45.590;-122.498;2023-04-10T03:19:49;101566.27;;;12.11;85.04
50632;BME280;49583;45.590;-122.498;2023-04-10T03:22:03;101570.84;;;12.14;85.13
50632;BME280;49583;45.590;-122.498;2023-04-10T03:24:15;101574.20;;;12.16;85.00
50632;BME280;49583;45.590;-122.498;2023-04-10T03:26:28;101580.38;;;12.19;85.09
50632;BME280;49583;45.590;-122.498;2023-04-10T03:28:41;101584.80;;;12.19;85.12
50632;BME280;49583;45.590;-122.498;2023-04-10T03:30:54;101584.80;;;12.19;85.14
50632;BME280;49583;45.590;-122.498;2023-04-10T03:33:07;101588.39;;;12.19;85.14
50632;BME280;49583;45.590;-122.498;2023-04-10T03:35:20;101596.23;;;12.19;85.25
50632;BME280;49583;45.590;-122.498;2023-04-10T03:37:33;101605.65;;;12.18;85.16
50632;BME280;49583;45.590;-122.498;2023-04-10T03:39:47;101608.39;;;12.18;85.25
50632;BME280;49583;45.590;-122.498;2023-04-10T03:42:01;101606.94;;;12.18;85.20
50632;BME280;49583;45.590;-122.498;2023-04-10T03:44:14;101608.30;;;12.18;85.42
50632;BME280;49583;45.590;-122.498;2023-04-10T03:46:27;101612.70;;;12.18;85.34
50632;BME280;49583;45.590;-122.498;2023-04-10T03:48:41;101612.30;;;12.18;85.31
50632;BME280;49583;45.590;-122.498;2023-04-10T03:50:54;101617.39;;;12.18;85.45
50632;BME280;49583;45.590;-122.498;2023-04-10T03:53:07;101617.30;;;12.17;85.45
50632;BME280;49583;45.590;-122.498;2023-04-10T03:55:21;101618.64;;;12.18;85.45
50632;BME280;49583;45.590;-122.498;2023-04-10T03:57:35;101625.98;;;12.17;85.38
50632;BME280;49583;45.590;-122.498;2023-04-10T03:59:50;101629.11;;;12.17;85.52
50632;BME280;49583;45.590;-122.498;2023-04-10T04:02:03;101630.27;;;12.16;85.62
50632;BME280;49583;45.590;-122.498;2023-04-10T04:04:18;101633.02;;;12.15;85.74
50632;BME280;49583;45.590;-122.498;2023-04-10T04:06:32;101637.72;;;12.15;85.67
50632;BME280;49583;45.590;-122.498;2023-04-10T04:09:07;101638.52;;;12.15;85.81
50632;BME280;49583;45.590;-122.498;2023-04-10T04:11:28;101638.27;;;12.16;85.77
50632;BME280;49583;45.590;-122.498;2023-04-10T04:13:54;101640.33;;;12.16;85.93
50632;BME280;49583;45.590;-122.498;2023-04-10T04:16:30;101642.59;;;12.15;85.98
50632;BME280;49583;45.590;-122.498;2023-04-10T04:19:04;101641.38;;;12.14;85.88
50632;BME280;49583;45.590;-122.498;2023-04-10T04:21:25;101647.56;;;12.14;85.99
50632;BME280;49583;45.590;-122.498;2023-04-10T04:24:02;101648.98;;;12.11;86.08
50632;BME280;49583;45.590;-122.498;2023-04-10T04:26:38;101653.18;;;12.11;86.24
50632;BME280;49583;45.590;-122.498;2023-04-10T04:29:08;101653.55;;;12.10;86.30
50632;BME280;49583;45.590;-122.498;2023-04-10T04:31:41;101657.80;;;12.10;86.39
50632;BME280;49583;45.590;-122.498;2023-04-10T04:34:12;101661.36;;;12.12;86.42
50632;BME280;49583;45.590;-122.498;2023-04-10T04:36:48;101663.98;;;12.12;86.44
50632;BME280;49583;45.590;-122.498;2023-04-10T04:39:19;101660.55;;;12.13;86.50
50632;BME280;49583;45.590;-122.498;2023-04-10T04:41:42;101666.44;;;12.13;86.56
50632;BME280;49583;45.590;-122.498;2023-04-10T04:44:22;101673.66;;;12.13;86.56
50632;BME280;49583;45.590;-122.498;2023-04-10T04:46:35;101675.54;;;12.13;86.65
50632;BME280;49583;45.590;-122.498;2023-04-10T04:49:12;101674.23;;;12.11;86.81
50632;BME280;49583;45.590;-122.498;2023-04-10T04:51:29;101683.25;;;12.14;86.63
50632;BME280;49583;45.590;-122.498;2023-04-10T04:53:48;101682.34;;;12.15;86.94
50632;BME280;49583;45.590;-122.498;2023-04-10T04:56:28;101689.19;;;12.16;86.80
50632;BME280;49583;45.590;-122.498;2023-04-10T04:58:59;101688.81;;;12.16;86.79
50632;BME280;49583;45.590;-122.498;2023-04-10T05:01:41;101690.88;;;12.17;86.83
50632;BME280;49583;45.590;-122.498;2023-04-10T05:04:12;101695.96;;;12.17;86.90
50632;BME280;49583;45.590;-122.498;2023-04-10T05:06:39;101695.11;;;12.17;86.85
50632;BME280;49583;45.590;-122.498;2023-04-10T05:08:58;101696.98;;;12.17;87.03
50632;BME280;49583;45.590;-122.498;2023-04-10T05:11:41;101700.30;;;12.18;87.17
50632;BME280;49583;45.590;-122.498;2023-04-10T05:14:21;101708.28;;;12.17;87.19
50632;BME280;49583;45.590;-122.498;2023-04-10T05:17:02;101710.30;;;12.16;87.21
50632;BME280;49583;45.590;-122.498;2023-04-10T05:19:22;101704.23;;;12.15;87.29
50632;BME280;49583;45.590;-122.498;2023-04-10T05:21:38;101712.81;;;12.13;87.37
50632;BME280;49583;45.590;-122.498;2023-04-10T05:24:09;101713.15;;;12.09;87.34
50632;BME280;49583;45.590;-122.498;2023-04-10T05:26:50;101700.35;;;12.06;87.42
50632;BME280;49583;45.590;-122.498;2023-04-10T05:29:21;101706.18;;;12.05;87.47
50632;BME280;49583;45.590;-122.498;2023-04-10T05:31:53;101711.23;;;12.04;87.48
50632;BME280;49583;45.590;-122.498;2023-04-10T05:34:22;101710.46;;;12.04;87.54
50632;BME280;49583;45.590;-122.498;2023-04-10T05:37:13;101707.27;;;12.05;87.66
50632;BME280;49583;45.590;-122.498;2023-04-10T05:39:58;101708.15;;;12.05;87.51
50632;BME280;49583;45.590;-122.498;2023-04-10T05:42:18;101712.23;;;12.05;87.44
50632;BME280;49583;45.590;-122.498;2023-04-10T05:45:01;101712.87;;;12.05;87.48
50632;BME280;49583;45.590;-122.498;2023-04-10T05:47:33;101710.24;;;12.06;87.39
50632;BME280;49583;45.590;-122.498;2023-04-10T05:50:12;101704.81;;;12.06;87.30
50632;BME280;49583;45.590;-122.498;2023-04-10T05:52:51;101702.30;;;12.06;87.20
50632;BME280;49583;45.590;-122.498;2023-04-10T05:55:25;101700.52;;;12.05;87.29
50632;BME280;49583;45.590;-122.498;2023-04-10T05:57:56;101702.70;;;12.04;87.34
50632;BME280;49583;45.590;-122.498;2023-04-10T06:00:22;101701.45;;;12.04;87.31
50632;BME280;49583;45.590;-122.498;2023-04-10T06:03:06;101703.84;;;12.03;87.44
50632;BME280;49583;45.590;-122.498;2023-04-10T06:05:29;101704.30;;;12.00;87.33
50632;BME280;49583;45.590;-122.498;2023-04-10T06:07:45;101701.36;;;11.98;87.43
50632;BME280;49583;45.590;-122.498;2023-04-10T06:09:57;101701.38;;;11.97;87.39
50632;BME280;49583;45.590;-122.498;2023-04-10T06:12:13;101697.95;;;11.95;87.50
50632;BME280;49583;45.590;-122.498;2023-04-10T06:14:26;101697.90;;;11.96;87.51
50632;BME280;49583;45.590;-122.498;2023-04-10T06:16:40;101699.48;;;11.94;87.48
50632;BME280;49583;45.590;-122.498;2023-04-10T06:18:52;101698.66;;;11.92;87.49
50632;BME280;49583;45.590;-122.498;2023-04-10T06:21:06;101700.29;;;11.92;87.56
50632;BME280;49583;45.590;-122.498;2023-04-10T06:23:19;101691.52;;;11.90;87.48
50632;BME280;49583;45.590;-122.498;2023-04-10T06:25:32;101685.91;;;11.89;87.49
50632;BME280;49583;45.590;-122.498;2023-04-10T06:27:45;101681.23;;;11.87;87.45
50632;BME280;49583;45.590;-122.498;2023-04-10T06:29:58;101683.27;;;11.85;87.51
50632;BME280;49583;45.590;-122.498;2023-04-10T06:32:12;101676.85;;;11.82;87.54
50632;BME280;49583;45.590;-122.498;2023-04-10T06:34:25;101679.19;;;11.80;87.58
50632;BME280;49583;45.590;-122.498;2023-04-10T06:36:41;101683.55;;;11.79;87.65
50632;BME280;49583;45.590;-122.498;2023-04-10T06:38:54;101684.08;;;11.78;87.64
50632;BME280;49583;45.590;-122.498;2023-04-10T06:41:08;101678.17;;;11.78;87.61
50632;BME280;49583;45.590;-122.498;2023-04-10T06:43:21;101679.73;;;11.77;87.66
50632;BME280;49583;45.590;-122.498;2023-04-10T06:45:34;101682.41;;;11.77;87.63
50632;BME280;49583;45.590;-122.498;2023-04-10T06:47:47;101676.89;;;11.76;87.63
50632;BME280;49583;45.590;-122.498;2023-04-10T06:50:00;101667.98;;;11.75;87.53
50632;BME280;49583;45.590;-122.498;2023-04-10T06:52:13;101668.67;;;11.75;87.68
50632;BME280;49583;45.590;-122.498;2023-04-10T06:54:26;101665.63;;;11.73;87.63
50632;BME280;49583;45.590;-122.498;2023-04-10T06:56:39;101661.41;;;11.73;87.77
50632;BME280;49583;45.590;-122.498;2023-04-10T06:58:51;101657.66;;;11.74;87.69
50632;BME280;49583;45.590;-122.498;2023-04-10T07:01:05;101656.08;;;11.74;87.71
50632;BME280;49583;45.590;-122.498;2023-04-10T07:03:19;101653.02;;;11.73;87.73
50632;BME280;49583;45.590;-122.498;2023-04-10T07:05:31;101648.77;;;11.74;87.77
50632;BME280;49583;45.590;-122.498;2023-04-10T07:07:44;101649.20;;;11.76;87.69
50632;BME280;49583;45.590;-122.498;2023-04-10T07:09:59;101654.16;;;11.76;87.70
50632;BME280;49583;45.590;-122.498;2023-04-10T07:12:12;101654.23;;;11.76;87.61
50632;BME280;49583;45.590;-122.498;2023-04-10T07:14:25;101645.63;;;11.77;87.72
50632;BME280;49583;45.590;-122.498;2023-04-10T07:16:38;101639.83;;;11.77;87.67
50632;BME280;49583;45.590;-122.498;2023-04-10T07:18:51;101639.17;;;11.79;87.76
50632;BME280;49583;45.590;-122.498;2023-04-10T07:21:11;101631.23;;;11.78;87.68
50632;BME280;49583;45.590;-122.498;2023-04-10T07:23:24;101625.54;;;11.79;87.54
50632;BME280;49583;45.590;-122.498;2023-04-10T07:25:37;101623.69;;;11.80;87.73
50632;BME280;49583;45.590;-122.498;2023-04-10T07:27:50;101622.82;;;11.80;87.57
50632;BME280;49583;45.590;-122.498;2023-04-10T07:30:03;101627.19;;;11.79;87.47
50632;BME280;49583;45.590;-122.498;2023-04-10T07:32:16;101625.38;;;11.79;87.53
50632;BME280;49583;45.590;-122.498;2023-04-10T07:34:29;101625.60;;;11.79;87.67
50632;BME280;49583;45.590;-122.498;2023-04-10T07:36:43;101625.48;;;11.79;87.46
50632;BME280;49583;45.590;-122.498;2023-04-10T07:38:56;101629.05;;;11.79;87.55
50632;BME280;49583;45.590;-122.498;2023-04-10T07:41:09;101626.17;;;11.80;87.56
50632;BME280;49583;45.590;-122.498;2023-04-10T07:43:22;101623.63;;;11.80;87.55
50632;BME280;49583;45.590;-122.498;2023-04-10T07:45:34;101616.33;;;11.80;87.50
50632;BME280;49583;45.590;-122.498;2023-04-10T07:47:48;101613.13;;;11.81;87.55
50632;BME280;49583;45.590;-122.498;2023-04-10T07:50:01;101610.61;;;11.81;87.49
50632;BME280;49583;45.590;-122.498;2023-04-10T07:52:14;101608.90;;;11.81;87.41
50632;BME280;49583;45.590;-122.498;2023-04-10T07:54:27;101609.01;;;11.79;87.42
50632;BME280;49583;45.590;-122.498;2023-04-10T07:56:42;101606.86;;;11.78;87.40
50632;BME280;49583;45.590;-122.498;2023-04-10T07:58:55;101609.18;;;11.78;87.50
50632;BME280;49583;45.590;-122.498;2023-04-10T08:01:08;101604.70;;;11.78;87.40
50632;BME280;49583;45.590;-122.498;2023-04-10T08:03:22;101602.61;;;11.75;87.34
50632;BME280;49583;45.590;-122.498;2023-04-10T08:05:35;101599.65;;;11.76;87.40
50632;BME280;49583;45.590;-122.498;2023-04-10T08:07:48;101604.61;;;11.76;87.56
50632;BME280;49583;45.590;-122.498;2023-04-10T08:10:01;101604.66;;;11.75;87.47
50632;BME280;49583;45.590;-122.498;2023-04-10T08:12:13;101606.31;;;11.76;87.47
50632;BME280;49583;45.590;-122.498;2023-04-10T08:14:26;101597.55;;;11.73;87.19
50632;BME280;49583;45.590;-122.498;2023-04-10T08:16:40;101597.26;;;11.68;87.13
50632;BME280;49583;45.590;-122.498;2023-04-10T08:18:53;101595.30;;;11.66;87.02
50632;BME280;49583;45.590;-122.498;2023-04-10T08:21:06;101604.38;;;11.65;87.08
50632;BME280;49583;45.590;-122.498;2023-04-10T08:23:19;101603.41;;;11.62;87.08
50632;BME280;49583;45.590;-122.498;2023-04-10T08:25:33;101603.81;;;11.60;86.95
50632;BME280;49583;45.590;-122.498;2023-04-10T08:27:46;101601.61;;;11.57;86.97
50632;BME280;49583;45.590;-122.498;2023-04-10T08:29:59;101607.67;;;11.53;86.87
50632;BME280;49583;45.590;-122.498;2023-04-10T08:32:11;101608.39;;;11.49;86.68
50632;BME280;49583;45.590;-122.498;2023-04-10T08:34:24;101605.98;;;11.44;86.40
50632;BME280;49583;45.590;-122.498;2023-04-10T08:36:37;101602.77;;;11.40;86.37
50632;BME280;49583;45.590;-122.498;2023-04-10T08:38:50;101602.23;;;11.35;86.08
50632;BME280;49583;45.590;-122.498;2023-04-10T08:41:03;101599.44;;;11.29;85.94
50632;BME280;49583;45.590;-122.498;2023-04-10T08:43:16;101596.98;;;11.23;85.94
50632;BME280;49583;45.590;-122.498;2023-04-10T08:45:29;101596.40;;;11.17;85.68
50632;BME280;49583;45.590;-122.498;2023-04-10T08:47:45;101598.96;;;11.12;85.55
50632;BME280;49583;45.590;-122.498;2023-04-10T08:50:03;101600.13;;;11.07;85.65
50632;BME280;49583;45.590;-122.498;2023-04-10T08:52:20;101596.89;;;11.04;85.65
50632;BME280;49583;45.590;-122.498;2023-04-10T08:54:34;101600.06;;;11.01;85.70
50632;BME280;49583;45.590;-122.498;2023-04-10T08:56:52;101597.70;;;10.98;85.62
50632;BME280;49583;45.590;-122.498;2023-04-10T08:59:05;101592.54;;;10.94;85.52
50632;BME280;49583;45.590;-122.498;2023-04-10T09:01:22;101589.14;;;10.91;85.47
50632;BME280;49583;45.590;-122.498;2023-04-10T09:03:35;101587.95;;;10.86;85.38
50632;BME280;49583;45.590;-122.498;2023-04-10T09:05:49;101581.73;;;10.80;85.47
50632;BME280;49583;45.590;-122.498;2023-04-10T09:08:02;101573.77;;;10.76;85.22
50632;BME280;49583;45.590;-122.498;2023-04-10T09:10:15;101574.08;;;10.72;85.38
50632;BME280;49583;45.590;-122.498;2023-04-10T09:12:28;101572.80;;;10.69;85.21
50632;BME280;49583;45.590;-122.498;2023-04-10T09:14:42;101570.63;;;10.67;85.70
50632;BME280;49583;45.590;-122.498;2023-04-10T09:17:09;101577.91;;;10.67;85.55
50632;BME280;49583;45.590;-122.498;2023-04-10T09:19:32;101576.77;;;10.66;85.72
50632;BME280;49583;45.590;-122.498;2023-04-10T09:21:51;101570.52;;;10.64;85.61
50632;BME280;49583;45.590;-122.498;2023-04-10T09:24:04;101564.58;;;10.62;85.48
50632;BME280;49583;45.590;-122.498;2023-04-10T09:26:27;101563.07;;;10.62;85.77
50632;BME280;49583;45.590;-122.498;2023-04-10T09:29:00;101560.62;;;10.61;85.58
50632;BME280;49583;45.590;-122.498;2023-04-10T09:31:29;101555.95;;;10.59;85.46
50632;BME280;49583;45.590;-122.498;2023-04-10T09:33:42;101554.13;;;10.58;85.55
50632;BME280;49583;45.590;-122.498;2023-04-10T09:35:56;101545.92;;;10.57;85.49
50632;BME280;49583;45.590;-122.498;2023-04-10T09:38:20;101541.15;;;10.57;85.68
50632;BME280;49583;45.590;-122.498;2023-04-10T09:40:35;101528.82;;;10.56;85.61
50632;BME280;49583;45.590;-122.498;2023-04-10T09:42:47;101528.37;;;10.54;85.44
50632;BME280;49583;45.590;-122.498;2023-04-10T09:45:00;101525.84;;;10.53;85.42
50632;BME280;49583;45.590;-122.498;2023-04-10T09:47:19;101524.46;;;10.52;85.36
50632;BME280;49583;45.590;-122.498;2023-04-10T09:49:46;101526.97;;;10.52;85.66
50632;BME280;49583;45.590;-122.498;2023-04-10T09:51:59;101528.84;;;10.51;85.50
50632;BME280;49583;45.590;-122.498;2023-04-10T09:54:12;101522.86;;;10.51;85.34
50632;BME280;49583;45.590;-122.498;2023-04-10T09:56:24;101520.89;;;10.50;85.63
50632;BME280;49583;45.590;-122.498;2023-04-10T09:58:38;101519.16;;;10.50;85.68
50632;BME280;49583;45.590;-122.498;2023-04-10T10:00:52;101515.33;;;10.50;85.77
50632;BME280;49583;45.590;-122.498;2023-04-10T10:03:07;101511.59;;;10.50;85.44
50632;BME280;49583;45.590;-122.498;2023-04-10T10:05:20;101505.95;;;10.50;85.66
50632;BME280;49583;45.590;-122.498;2023-04-10T10:07:38;101500.05;;;10.50;85.46
50632;BME280;49583;45.590;-122.498;2023-04-10T10:09:52;101498.38;;;10.49;85.51
50632;BME280;49583;45.590;-122.498;2023-04-10T10:12:06;101489.24;;;10.47;85.46
50632;BME280;49583;45.590;-122.498;2023-04-10T10:14:21;101487.51;;;10.47;85.46
50632;BME280;49583;45.590;-122.498;2023-04-10T10:16:38;101479.73;;;10.46;85.73
50632;BME280;49583;45.590;-122.498;2023-04-10T10:18:57;101479.80;;;10.46;85.53
50632;BME280;49583;45.590;-122.498;2023-04-10T10:21:14;101474.86;;;10.45;85.46
50632;BME280;49583;45.590;-122.498;2023-04-10T10:23:28;101473.15;;;10.45;85.71
50632;BME280;49583;45.590;-122.498;2023-04-10T10:25:43;101471.43;;;10.45;86.07
50632;BME280;49583;45.590;-122.498;2023-04-10T10:27:57;101469.95;;;10.45;85.91
50632;BME280;49583;45.590;-122.498;2023-04-10T10:30:14;101469.56;;;10.46;85.79
50632;BME280;49583;45.590;-122.498;2023-04-10T10:32:39;101470.41;;;10.45;85.82
50632;BME280;49583;45.590;-122.498;2023-04-10T10:34:53;101470.13;;;10.44;85.78
50632;BME280;49583;45.590;-122.498;2023-04-10T10:37:06;101468.48;;;10.44;85.82
50632;BME280;49583;45.590;-122.498;2023-04-10T10:39:31;101473.16;;;10.43;85.85
50632;BME280;49583;45.590;-122.498;2023-04-10T10:41:53;101473.38;;;10.45;85.98
50632;BME280;49583;45.590;-122.498;2023-04-10T10:44:13;101469.68;;;10.44;85.86
50632;BME280;49583;45.590;-122.498;2023-04-10T10:46:36;101459.38;;;10.43;85.85
50632;BME280;49583;45.590;-122.498;2023-04-10T10:48:59;101454.55;;;10.43;85.95
50632;BME280;49583;45.590;-122.498;2023-04-10T10:51:12;101456.20;;;10.43;85.89
50632;BME280;49583;45.590;-122.498;2023-04-10T10:53:39;101458.52;;;10.43;85.98
50632;BME280;49583;45.590;-122.498;2023-04-10T10:55:52;101463.26;;;10.42;86.02
50632;BME280;49583;45.590;-122.498;2023-04-10T10:58:06;101469.66;;;10.41;86.06
50632;BME280;49583;45.590;-122.498;2023-04-10T11:00:19;101474.84;;;10.39;85.89
50632;BME280;49583;45.590;-122.498;2023-04-10T11:02:32;101475.15;;;10.40;85.90
50632;BME280;49583;45.590;-122.498;2023-04-10T11:04:47;101466.39;;;10.40;85.82
50632;BME280;49583;45.590;-122.498;2023-04-10T11:06:59;101460.36;;;10.40;85.97
50632;BME280;49583;45.590;-122.498;2023-04-10T11:09:48;101459.15;;;10.38;85.89
50632;BME280;49583;45.590;-122.498;2023-04-10T11:12:02;101462.16;;;10.37;85.94
50632;BME280;49583;45.590;-122.498;2023-04-10T11:14:17;101458.55;;;10.36;85.87
50632;BME280;49583;45.590;-122.498;2023-04-10T11:19:07;101449.34;;;10.38;85.64
50632;BME280;49583;45.590;-122.498;2023-04-10T11:21:25;101450.71;;;10.34;85.73
50632;BME280;49583;45.590;-122.498;2023-04-10T11:24:00;101448.11;;;10.31;85.72
50632;BME280;49583;45.590;-122.498;2023-04-10T11:26:10;101443.23;;;10.28;85.42
50632;BME280;49583;45.590;-122.498;2023-04-10T11:28:45;101444.36;;;10.25;85.51
50632;BME280;49583;45.590;-122.498;2023-04-10T11:31:03;101440.39;;;10.23;85.47
50632;BME280;49583;45.590;-122.498;2023-04-10T11:33:25;101430.66;;;10.22;85.86
50632;BME280;49583;45.590;-122.498;2023-04-10T11:35:38;101428.53;;;10.22;85.67